Time;durP1;ratioP1;P1;durP2;ratioP2;P2;SDS_P1;SDS_P2;PMS_P1;PMS_P2;Temp;Humidity;BMP_temperature;BMP_pressure;BME280_temperature;BME280_humidity;BME280_pressure;Samples;Min_cycle;Max_cycle;Signal;HPM_P1;HPM_P2
2022/09/22 00:01:01;;;;;;;1.10;1.10;;;;;;;18.63;51.82;101321.47;5013667;28;20768;-84
2022/09/22 00:03:35;;;;;;;1.10;1.00;;;;;;;18.71;51.78;101313.72;5031282;28;20026;-85
2022/09/22 00:06:06;;;;;;;1.20;1.10;;;;;;;18.63;51.94;101310.00;5013720;28;20498;-84
2022/09/22 00:08:35;;;;;;;1.25;1.00;;;;;;;18.34;51.98;101304.69;5012813;28;20112;-84
2022/09/22 00:11:04;;;;;;;1.20;1.10;;;;;;;18.27;52.23;101315.94;5029636;28;20036;-84
2022/09/22 00:13:31;;;;;;;1.30;1.20;;;;;;;18.23;52.18;101314.06;5030388;28;20068;-84
2022/09/22 00:15:58;;;;;;;1.13;1.08;;;;;;;18.21;52.25;101298.13;5011971;28;20025;-85
2022/09/22 00:18:23;;;;;;;2.28;1.00;;;;;;;18.14;52.15;101290.88;5014162;28;20056;-85
2022/09/22 00:20:49;;;;;;;1.05;0.98;;;;;;;17.89;51.96;101242.53;5031378;28;20057;-85
2022/09/22 00:23:14;;;;;;;2.38;1.20;;;;;;;18.27;51.76;101305.38;5028674;28;20388;-85
2022/09/22 00:25:40;;;;;;;1.15;1.05;;;;;;;18.13;52.20;101291.72;5027707;28;20490;-84
2022/09/22 00:28:06;;;;;;;1.80;1.00;;;;;;;18.05;51.70;101287.94;5031616;28;20017;-85
2022/09/22 00:30:31;;;;;;;1.30;1.20;;;;;;;18.24;51.59;101294.69;5013091;28;20705;-85
2022/09/22 00:32:57;;;;;;;0.90;0.90;;;;;;;18.41;51.82;101319.91;5030721;28;20053;-85
2022/09/22 00:35:23;;;;;;;2.55;1.10;;;;;;;18.05;51.68;101246.53;5029330;28;20025;-85
2022/09/22 00:37:48;;;;;;;0.90;0.90;;;;;;;18.33;51.67;101289.72;5010981;28;20056;-85
2022/09/22 00:40:14;;;;;;;1.20;1.10;;;;;;;18.44;51.91;101301.50;5026972;28;20109;-85
2022/09/22 00:42:42;;;;;;;1.30;1.20;;;;;;;18.26;51.66;101266.56;5013078;28;20049;-85
2022/09/22 00:45:10;;;;;;;1.20;1.10;;;;;;;18.21;51.62;101255.84;5029440;28;20410;-85
2022/09/22 00:47:39;;;;;;;1.10;1.00;;;;;;;18.60;51.66;101310.78;5013528;28;20025;-85
2022/09/22 00:50:07;;;;;;;1.45;0.98;;;;;;;18.59;51.72;101310.75;4990543;28;20061;-84
2022/09/22 00:52:38;;;;;;;1.40;1.00;;;;;;;18.55;51.51;101303.56;5018078;28;20046;-85
2022/09/22 00:55:15;;;;;;;0.90;0.90;;;;;;;18.34;51.72;101265.03;4986734;28;20029;-85
2022/09/22 00:57:43;;;;;;;0.90;0.90;;;;;;;18.31;51.47;101262.31;5013188;28;20021;-85
2022/09/22 01:00:10;;;;;;;2.83;1.08;;;;;;;18.59;51.05;101295.75;5016805;28;20506;-85
2022/09/22 01:02:36;;;;;;;1.42;1.13;;;;;;;18.60;51.28;101302.84;5030890;28;20109;-85
2022/09/22 01:05:02;;;;;;;;;;;;;;;18.69;51.27;101312.81;5008452;28;20096;-86
2022/09/22 01:07:30;;;;;;;1.63;1.20;;;;;;;18.63;51.24;101313.53;5004037;28;19918;-86
2022/09/22 01:09:56;;;;;;;1.77;0.93;;;;;;;18.33;51.42;101267.63;5014896;28;20026;-83
2022/09/22 01:12:23;;;;;;;1.05;0.90;;;;;;;18.51;51.48;101295.53;5023002;28;20522;-84
2022/09/22 01:15:15;;;;;;;1.25;0.80;;;;;;;18.59;51.60;101321.34;5030281;28;20045;-85
2022/09/22 01:17:53;;;;;;;0.90;0.90;;;;;;;18.59;51.54;101311.63;5031188;28;20091;-85
2022/09/22 01:20:29;;;;;;;0.90;0.90;;;;;;;18.56;51.86;101308.88;5029794;28;20021;-85
2022/09/22 01:23:23;;;;;;;1.00;1.00;;;;;;;18.56;51.92;101313.28;5029854;28;20112;-85
2022/09/22 01:26:01;;;;;;;0.90;0.90;;;;;;;18.59;51.59;101308.09;5029423;28;20026;-84
2022/09/22 01:29:03;;;;;;;1.10;1.00;;;;;;;18.55;51.77;101309.75;5029877;28;20022;-84
2022/09/22 01:31:32;;;;;;;1.25;1.00;;;;;;;18.59;51.82;101322.22;5034491;28;20025;-84
2022/09/22 01:34:04;;;;;;;1.25;1.00;;;;;;;18.60;51.65;101323.09;5028272;28;20079;-85
2022/09/22 01:36:40;;;;;;;1.05;0.90;;;;;;;18.56;51.81;101313.28;5030499;28;20025;-84
2022/09/22 01:39:33;;;;;;;0.95;0.90;;;;;;;18.66;51.37;101318.91;5014692;28;20025;-84
2022/09/22 01:42:04;;;;;;;1.17;1.00;;;;;;;18.36;51.59;101273.03;5030232;28;20411;-85
2022/09/22 01:44:45;;;;;;;0.90;0.90;;;;;;;18.34;51.80;101285.31;5019465;28;20024;-84
2022/09/22 01:47:12;;;;;;;1.10;0.85;;;;;;;18.53;51.85;101319.38;5022939;28;20033;-86
2022/09/22 01:49:46;;;;;;;1.48;1.00;;;;;;;18.56;51.77;101321.22;5033098;28;20021;-85
2022/09/22 01:52:24;;;;;;;0.88;0.88;;;;;;;18.59;51.57;101327.50;5015552;28;20049;-86
2022/09/22 01:55:37;;;;;;;0.98;0.90;;;;;;;18.61;51.30;101324.91;5028833;28;20586;-86
2022/09/22 01:58:11;;;;;;;1.25;1.10;;;;;;;18.59;51.55;101321.34;5028699;28;20068;-85
2022/09/22 02:00:40;;;;;;;1.05;0.85;;;;;;;18.40;51.60;101304.00;5025331;28;20064;-86
2022/09/22 02:03:14;;;;;;;0.80;0.80;;;;;;;18.62;51.47;101319.66;5016047;28;20025;-85
2022/09/22 02:05:44;;;;;;;0.75;0.75;;;;;;;18.60;51.45;101308.13;5032670;28;20036;-85
2022/09/22 02:08:15;;;;;;;0.98;0.95;;;;;;;18.49;51.45;101301.63;5019534;28;20491;-85
2022/09/22 02:10:43;;;;;;;1.25;1.10;;;;;;;18.52;51.48;101302.63;5014973;28;20108;-84
2022/09/22 02:13:08;;;;;;;1.10;1.08;;;;;;;18.52;51.51;101304.38;5013852;28;20090;-85
2022/09/22 02:18:40;;;;;;;1.20;1.10;;;;;;;18.23;51.69;101269.13;5016879;28;20613;-85
2022/09/22 02:21:06;;;;;;;0.90;0.90;;;;;;;18.59;51.32;101309.00;5033955;28;20164;-84
2022/09/22 02:23:32;;;;;;;1.33;0.95;;;;;;;18.57;51.40;101307.16;5032733;28;20060;-85
2022/09/22 02:26:00;;;;;;;0.90;0.90;;;;;;;18.52;51.29;101307.03;5013577;28;20066;-84
2022/09/22 02:28:27;;;;;;;4.28;1.10;;;;;;;18.47;51.50;101290.09;5015777;28;20021;-84
2022/09/22 02:30:54;;;;;;;1.00;1.00;;;;;;;18.41;51.25;101285.53;5013151;28;20056;-84
2022/09/22 02:33:22;;;;;;;0.90;0.90;;;;;;;18.31;51.49;101287.00;5014967;28;20052;-84
2022/09/22 02:35:53;;;;;;;1.25;1.00;;;;;;;18.51;51.36;101299.94;5014830;28;20475;-84
2022/09/22 02:38:21;;;;;;;0.93;0.88;;;;;;;18.23;51.51;101256.78;5013801;28;20034;-84
2022/09/22 02:41:05;;;;;;;1.50;1.30;;;;;;;18.51;51.59;101305.22;5014876;28;20480;-84
2022/09/22 02:43:40;;;;;;;1.10;1.00;;;;;;;18.49;51.80;101306.91;5030548;28;20124;-84
2022/09/22 02:46:19;;;;;;;2.10;1.00;;;;;;;18.51;51.79;101299.94;5038826;28;20030;-84
2022/09/22 02:48:47;;;;;;;1.20;1.10;;;;;;;18.22;51.59;101254.97;5013694;28;20101;-84
2022/09/22 02:51:13;;;;;;;1.25;0.90;;;;;;;17.97;51.57;101210.16;5029268;28;20021;-84
2022/09/22 02:53:39;;;;;;;0.85;0.80;;;;;;;18.21;51.73;101247.91;5023926;28;20132;-84
2022/09/22 02:56:05;;;;;;;1.23;1.10;;;;;;;18.46;51.33;101294.50;5033582;28;20539;-85
2022/09/22 02:58:30;;;;;;;0.80;0.80;;;;;;;18.28;51.22;101252.53;5012039;28;20041;-84
2022/09/22 03:00:56;;;;;;;1.10;1.00;;;;;;;18.35;51.72;101277.44;5028264;28;20053;-84
2022/09/22 03:03:22;;;;;;;1.05;1.05;;;;;;;18.07;51.37;101228.97;5014557;28;20033;-85
2022/09/22 03:05:47;;;;;;;1.27;1.10;;;;;;;18.25;51.46;101262.13;5033972;28;20030;-84
2022/09/22 03:08:13;;;;;;;1.17;1.10;;;;;;;17.86;51.51;101197.53;5032746;28;20033;-84
2022/09/22 03:10:39;;;;;;;1.30;1.20;;;;;;;18.47;51.61;101295.41;5010457;28;20037;-84
2022/09/22 03:13:04;;;;;;;1.20;0.90;;;;;;;18.34;51.76;101275.63;5030897;28;20109;-84
2022/09/22 03:15:30;;;;;;;1.25;1.15;;;;;;;18.10;51.74;101236.13;5029457;28;20025;-84
2022/09/22 03:17:56;;;;;;;1.10;1.00;;;;;;;18.36;51.53;101279.22;5012870;28;20040;-84
2022/09/22 03:20:21;;;;;;;1.40;1.10;;;;;;;18.36;51.57;101279.22;5012600;28;20483;-84
2022/09/22 03:22:47;;;;;;;1.33;1.00;;;;;;;18.26;51.84;101282.41;5030135;28;20183;-85
2022/09/22 03:25:13;;;;;;;1.00;1.00;;;;;;;17.97;51.67;101245.41;5030364;28;20541;-84
2022/09/22 03:27:38;;;;;;;1.63;1.20;;;;;;;18.18;51.76;101291.84;5030563;28;20033;-84
2022/09/22 03:30:06;;;;;;;1.25;1.15;;;;;;;18.30;51.87;101308.09;5013275;28;20517;-84
2022/09/22 03:32:32;;;;;;;1.20;1.10;;;;;;;18.31;51.67;101307.28;5021153;28;20120;-84
2022/09/22 03:34:57;;;;;;;1.20;1.10;;;;;;;18.36;51.75;101324.16;5015877;28;20464;-84
2022/09/22 03:37:23;;;;;;;1.25;1.08;;;;;;;18.34;51.75;101327.63;5022267;28;20053;-85
2022/09/22 03:39:49;;;;;;;1.95;1.10;;;;;;;18.36;51.96;101344.44;5013840;28;20060;-85
2022/09/22 03:42:15;;;;;;;1.23;1.13;;;;;;;18.07;51.78;101291.50;5022567;28;20060;-86
2022/09/22 03:44:40;;;;;;;1.58;1.20;;;;;;;18.21;51.54;101311.34;5012828;28;20566;-85
2022/09/22 03:47:06;;;;;;;1.50;1.20;;;;;;;18.30;51.45;101324.84;5039245;28;20104;-85
2022/09/22 03:49:32;;;;;;;1.63;1.30;;;;;;;18.47;51.37;101350.94;5013098;28;20056;-85
2022/09/22 03:51:57;;;;;;;1.75;1.08;;;;;;;18.27;51.93;101345.94;5012198;28;20041;-85
2022/09/22 03:54:23;;;;;;;4.35;1.20;;;;;;;18.01;51.79;101308.09;5011553;28;20033;-85
2022/09/22 03:56:49;;;;;;;1.42;1.13;;;;;;;18.03;51.74;101318.69;5012496;28;20104;-85
2022/09/22 03:59:15;;;;;;;1.30;1.20;;;;;;;18.05;51.43;101327.56;5012862;28;20025;-86
2022/09/22 04:01:40;;;;;;;2.05;1.30;;;;;;;18.30;52.07;101369.81;5037090;28;20249;-84
2022/09/22 04:04:06;;;;;;;1.00;1.00;;;;;;;18.32;51.68;101380.44;5012897;28;20530;-84
2022/09/22 04:06:32;;;;;;;4.88;1.30;;;;;;;18.30;51.74;101379.50;5034297;28;20033;-84
2022/09/22 04:08:58;;;;;;;1.30;1.00;;;;;;;18.22;51.60;101360.72;5023620;28;20037;-84
2022/09/22 04:11:24;;;;;;;1.20;1.10;;;;;;;18.30;51.81;101380.38;5033561;28;20079;-84
2022/09/22 04:13:50;;;;;;;1.38;1.15;;;;;;;18.10;51.69;101336.56;5036845;28;20124;-84
2022/09/22 04:16:16;;;;;;;2.05;1.30;;;;;;;18.38;51.68;101388.56;5038540;28;20088;-84
2022/09/22 04:18:42;;;;;;;1.30;1.20;;;;;;;18.21;51.79;101355.41;5012506;28;20449;-83
2022/09/22 04:21:08;;;;;;;1.50;1.33;;;;;;;18.16;51.76;101352.63;5031641;28;20026;-84
2022/09/22 04:23:34;;;;;;;2.03;1.45;;;;;;;18.26;51.90;101364.38;5029895;28;20026;-84
2022/09/22 04:26:00;;;;;;;1.77;1.10;;;;;;;18.18;51.74;101353.56;5037127;28;20041;-84
2022/09/22 04:28:27;;;;;;;2.17;1.40;;;;;;;18.18;51.77;101345.66;5027807;28;20033;-83
2022/09/22 04:30:52;;;;;;;;;;;;;;;18.35;51.91;101380.56;5013557;28;20499;-83
2022/09/22 04:33:18;;;;;;;2.58;1.23;;;;;;;18.29;51.99;101383.00;5013219;28;20020;-83
2022/09/22 04:35:43;;;;;;;1.52;1.20;;;;;;;17.89;52.02;101305.94;5026630;28;20048;-83
2022/09/22 04:38:09;;;;;;;1.35;1.25;;;;;;;17.90;51.82;101299.78;5039028;28;20029;-84
2022/09/22 04:40:36;;;;;;;1.50;1.15;;;;;;;18.36;51.76;101374.41;5012875;28;20511;-85
2022/09/22 04:43:01;;;;;;;1.88;1.10;;;;;;;18.30;51.83;101361.88;5029754;28;20033;-84
2022/09/22 04:45:27;;;;;;;1.52;1.10;;;;;;;18.25;51.87;101373.16;5009422;28;20029;-84
2022/09/22 04:47:52;;;;;;;1.38;1.13;;;;;;;18.33;51.58;101368.09;5030685;28;20041;-84
2022/09/22 04:50:20;;;;;;;1.23;1.10;;;;;;;18.32;51.58;101372.50;5013354;28;20041;-84
2022/09/22 04:52:48;;;;;;;1.33;1.10;;;;;;;18.19;51.85;101358.00;5019265;28;20043;-84
2022/09/22 04:55:15;;;;;;;1.25;1.08;;;;;;;18.18;52.16;101382.66;5013312;28;20586;-85
2022/09/22 04:57:41;;;;;;;1.65;1.20;;;;;;;18.00;51.97;101332.72;5016790;28;20032;-84
2022/09/22 05:00:08;;;;;;;1.23;1.13;;;;;;;18.26;51.76;101359.97;5037405;28;20025;-85
2022/09/22 05:02:34;;;;;;;1.92;1.38;;;;;;;18.32;51.66;101377.78;5026381;28;20025;-85
2022/09/22 05:05:00;;;;;;;;;;;;;;;18.28;51.68;101382.06;5036738;28;20034;-85
2022/09/22 05:07:25;;;;;;;1.30;1.20;;;;;;;18.10;52.00;101365.63;5029016;28;19920;-85
2022/09/22 05:09:51;;;;;;;1.20;1.10;;;;;;;18.20;52.21;101382.69;5030834;28;20156;-83
2022/09/22 05:12:19;;;;;;;1.65;1.20;;;;;;;18.10;52.11;101365.63;5034950;28;20083;-83
2022/09/22 05:14:45;;;;;;;2.80;1.30;;;;;;;18.16;52.21;101373.78;5032406;28;20095;-84
2022/09/22 05:17:10;;;;;;;1.52;1.20;;;;;;;18.30;51.62;101384.78;5033912;28;20033;-83
2022/09/22 05:19:36;;;;;;;1.50;1.15;;;;;;;18.19;51.58;101357.09;5033108;28;20533;-83
2022/09/22 05:22:02;;;;;;;2.25;1.30;;;;;;;18.01;51.90;101360.03;5016059;28;20723;-84
2022/09/22 05:24:28;;;;;;;1.23;1.13;;;;;;;17.85;52.00;101311.97;4998778;28;20063;-85
2022/09/22 05:26:54;;;;;;;1.92;1.10;;;;;;;18.14;52.03;101367.53;5033091;28;20031;-86
2022/09/22 05:29:20;;;;;;;1.55;1.35;;;;;;;18.17;51.85;101364.97;4997874;28;20034;-85
2022/09/22 05:31:46;;;;;;;1.40;1.25;;;;;;;18.09;52.36;101367.34;5029863;28;20029;-86
2022/09/22 05:34:12;;;;;;;1.90;1.08;;;;;;;18.04;52.08;101355.75;5016130;28;20044;-85
2022/09/22 05:36:38;;;;;;;1.73;1.25;;;;;;;18.21;51.74;101382.75;5031431;28;20041;-85
2022/09/22 05:39:04;;;;;;;1.27;1.00;;;;;;;18.08;51.84;101365.56;5031856;28;20036;-86
2022/09/22 05:41:30;;;;;;;1.92;1.13;;;;;;;18.20;51.98;101382.69;5008207;28;20040;-86
2022/09/22 05:43:55;;;;;;;1.50;1.30;;;;;;;18.24;51.97;101385.47;5036664;28;20021;-86
2022/09/22 05:46:21;;;;;;;1.10;1.10;;;;;;;18.06;52.13;101372.56;5034183;28;20056;-86
2022/09/22 05:48:47;;;;;;;1.50;1.40;;;;;;;18.10;51.94;101378.84;5030195;28;20060;-86
2022/09/22 05:51:13;;;;;;;1.40;1.20;;;;;;;18.15;52.37;101392.22;4983051;28;20037;-86
2022/09/22 05:53:38;;;;;;;2.63;1.25;;;;;;;17.87;52.17;101354.31;5002654;28;20050;-85
2022/09/22 05:56:04;;;;;;;1.58;1.30;;;;;;;17.87;52.11;101352.56;5010001;28;20157;-86
2022/09/22 05:58:30;;;;;;;1.33;1.10;;;;;;;17.98;52.27;101381.09;5013932;28;20029;-84
2022/09/22 06:00:56;;;;;;;1.92;1.40;;;;;;;18.03;52.19;101385.69;5015939;28;20138;-87
2022/09/22 06:03:22;;;;;;;2.28;1.30;;;;;;;17.82;51.99;101345.28;5016306;28;20434;-86
2022/09/22 06:05:48;;;;;;;1.40;1.30;;;;;;;17.82;52.06;101356.78;4999420;28;20475;-85
2022/09/22 06:08:14;;;;;;;1.52;1.33;;;;;;;17.99;52.50;101401.38;4995670;28;20095;-85
2022/09/22 06:10:40;;;;;;;1.75;1.40;;;;;;;17.55;52.39;101348.78;5033311;28;20032;-87
2022/09/22 06:13:07;;;;;;;1.40;1.20;;;;;;;17.89;52.36;101401.06;5014100;28;20067;-87
2022/09/22 06:15:34;;;;;;;1.52;1.42;;;;;;;17.64;52.74;101370.22;4989765;28;20045;-86
2022/09/22 06:18:02;;;;;;;2.70;1.30;;;;;;;17.52;52.98;101358.34;4984964;28;20025;-85
2022/09/22 06:20:28;;;;;;;2.28;1.42;;;;;;;17.72;52.79;101388.97;5016816;28;20407;-86
2022/09/22 06:22:55;;;;;;;1.88;1.48;;;;;;;17.40;52.98;101342.94;4987313;28;20394;-85
2022/09/22 06:25:22;;;;;;;1.55;1.33;;;;;;;17.59;53.15;101363.91;5025429;28;20034;-87
2022/09/22 06:28:01;;;;;;;1.88;1.48;;;;;;;17.67;53.27;101388.84;5042334;28;20112;-86
2022/09/22 06:30:26;;;;;;;1.88;1.55;;;;;;;17.69;53.14;101403.00;5002767;28;20021;-84
2022/09/22 06:32:54;;;;;;;1.70;1.60;;;;;;;17.70;53.16;101409.16;5041396;28;20032;-85
2022/09/22 06:35:19;;;;;;;3.78;1.70;;;;;;;17.58;53.53;101419.28;5021607;28;20029;-85
2022/09/22 06:37:50;;;;;;;2.53;1.50;;;;;;;17.39;53.64;101394.84;5046556;28;20079;-85
2022/09/22 06:40:15;;;;;;;3.67;1.73;;;;;;;17.48;53.62;101410.13;5026714;28;20464;-85
2022/09/22 06:42:41;;;;;;;2.47;1.67;;;;;;;17.54;53.75;101420.91;5046714;28;20069;-85
2022/09/22 06:45:08;;;;;;;2.33;1.77;;;;;;;17.58;53.32;101419.28;5043625;28;20453;-86
2022/09/22 06:47:33;;;;;;;1.90;1.52;;;;;;;17.75;53.11;101430.47;5003967;28;20479;-86
2022/09/22 06:50:04;;;;;;;3.35;1.65;;;;;;;17.60;52.93;101385.91;5004196;28;20021;-87
2022/09/22 06:52:31;;;;;;;1.92;1.50;;;;;;;17.59;52.92;101394.66;5019633;28;20084;-86
2022/09/22 06:54:59;;;;;;;2.35;1.67;;;;;;;17.78;53.07;101422.63;5014353;28;20025;-85
2022/09/22 06:57:29;;;;;;;1.77;1.42;;;;;;;17.65;52.97;101386.97;5006527;28;20031;-85
2022/09/22 06:59:55;;;;;;;3.80;1.80;;;;;;;17.93;52.85;101427.56;5023723;28;20148;-85
2022/09/22 07:02:27;;;;;;;1.90;1.70;;;;;;;17.72;52.95;101401.31;5035073;28;20064;-85
2022/09/22 07:04:57;;;;;;;4.68;1.52;;;;;;;17.83;52.74;101414.06;5017356;28;20521;-85
2022/09/22 07:07:31;;;;;;;1.60;1.50;;;;;;;17.89;52.61;101414.28;5012071;28;20029;-85
2022/09/22 07:09:57;;;;;;;2.80;1.77;;;;;;;17.99;52.52;101430.44;5033926;28;20688;-82
2022/09/22 07:12:24;;;;;;;2.42;1.73;;;;;;;17.98;52.23;101416.31;5032077;28;20033;-84
2022/09/22 07:14:52;;;;;;;2.17;1.42;;;;;;;18.01;52.58;101429.66;5003229;28;20080;-84
2022/09/22 07:17:20;;;;;;;2.58;1.60;;;;;;;17.89;52.70;101414.28;5014550;28;20036;-84
2022/09/22 07:19:46;;;;;;;3.08;1.70;;;;;;;17.79;52.74;101395.38;5000011;28;20065;-84
2022/09/22 07:22:14;;;;;;;1.90;1.65;;;;;;;17.86;52.66;101407.97;5033379;28;20025;-85
2022/09/22 07:24:41;;;;;;;1.50;1.33;;;;;;;17.95;52.64;101436.47;5019498;28;20414;-85
2022/09/22 07:27:09;;;;;;;1.60;1.35;;;;;;;17.97;52.56;101432.13;5032227;28;20042;-85
2022/09/22 07:29:36;;;;;;;1.50;1.40;;;;;;;17.98;52.57;101436.56;4996269;28;20191;-84
2022/09/22 07:32:02;;;;;;;3.35;1.52;;;;;;;17.97;52.42;101430.41;5004617;28;20034;-84
2022/09/22 07:34:28;;;;;;;1.83;1.60;;;;;;;17.99;52.35;101419.88;5016733;28;20463;-85
2022/09/22 07:36:54;;;;;;;2.20;1.55;;;;;;;17.85;52.38;101412.38;5010633;28;20032;-84
2022/09/22 07:39:19;;;;;;;2.90;1.77;;;;;;;17.83;52.35;101405.25;5025077;28;20041;-84
2022/09/22 07:41:46;;;;;;;2.85;1.60;;;;;;;18.01;52.21;101426.09;5018240;28;20028;-84
2022/09/22 07:46:59;;;;;;;1.58;1.48;;;;;;;17.92;52.75;101437.25;5031545;28;20035;-84
2022/09/22 07:49:25;;;;;;;1.58;1.40;;;;;;;17.85;52.82;101419.41;5007347;28;20476;-85
2022/09/22 07:51:53;;;;;;;2.53;1.30;;;;;;;17.84;52.78;101437.00;5029859;28;20040;-85
2022/09/22 07:54:20;;;;;;;1.55;1.45;;;;;;;17.55;52.73;101375.19;5029016;28;20125;-85
2022/09/22 07:56:48;;;;;;;1.88;1.27;;;;;;;17.82;52.60;101411.31;5012554;28;20021;-86
2022/09/22 07:59:15;;;;;;;2.20;2.00;;;;;;;17.53;52.79;101373.34;5000503;28;20523;-87
2022/09/22 08:01:46;;;;;;;1.60;1.50;;;;;;;17.77;52.89;101421.72;5010608;28;20540;-86
2022/09/22 08:04:15;;;;;;;1.50;1.40;;;;;;;17.88;52.72;101430.94;5009790;28;20052;-86
2022/09/22 08:06:45;;;;;;;1.88;1.50;;;;;;;17.83;52.93;101431.66;5014259;28;20033;-86
2022/09/22 08:09:12;;;;;;;1.73;1.38;;;;;;;17.36;52.79;101347.22;5015587;28;20033;-87
2022/09/22 08:11:38;;;;;;;2.40;1.65;;;;;;;17.79;53.05;101429.72;4994908;28;20048;-85
2022/09/22 08:14:07;;;;;;;1.40;1.30;;;;;;;17.55;52.82;101375.19;5032195;28;20460;-86
2022/09/22 08:16:35;;;;;;;1.48;1.35;;;;;;;17.74;52.93;101404.88;4994056;28;20026;-87
2022/09/22 08:19:10;;;;;;;1.67;1.58;;;;;;;17.59;52.95;101384.09;5008186;28;20025;-87
2022/09/22 08:21:37;;;;;;;2.30;1.27;;;;;;;17.70;53.27;101411.81;5021520;28;20029;-86
2022/09/22 08:24:08;;;;;;;2.83;1.70;;;;;;;17.75;52.92;101414.59;5007913;28;20030;-87
2022/09/22 08:26:37;;;;;;;1.88;1.58;;;;;;;17.60;53.03;101394.72;5024274;28;20063;-85
2022/09/22 08:29:04;;;;;;;1.40;1.30;;;;;;;17.64;53.24;101401.03;5008599;28;20083;-85
2022/09/22 08:31:30;;;;;;;1.48;1.38;;;;;;;17.75;53.20;101420.78;5002379;28;20036;-84
2022/09/22 08:33:56;;;;;;;1.67;1.58;;;;;;;17.77;53.27;101420.84;5029502;28;20033;-85
2022/09/22 08:36:24;;;;;;;1.70;1.50;;;;;;;17.56;53.32;101387.53;5013444;28;20702;-85
2022/09/22 08:38:50;;;;;;;1.50;1.40;;;;;;;17.75;53.13;101427.81;5004958;28;20036;-87
2022/09/22 08:41:30;;;;;;;2.13;1.73;;;;;;;17.73;53.34;101419.81;5011936;28;20033;-90
2022/09/22 08:44:13;;;;;;;1.65;1.55;;;;;;;17.61;53.10;101392.97;5012783;28;20033;-89
2022/09/22 08:46:43;;;;;;;3.38;1.58;;;;;;;17.41;52.86;101353.56;4997882;28;20103;-90
2022/09/22 08:52:31;;;;;;;2.03;1.60;;;;;;;17.78;53.26;101425.25;5028369;28;20052;-88
2022/09/22 08:54:59;;;;;;;2.92;1.77;;;;;;;17.82;53.22;101417.56;5035250;28;20041;-89
2022/09/22 08:57:31;;;;;;;1.65;1.55;;;;;;;17.76;53.23;101419.94;4999968;28;20049;-88
2022/09/22 09:00:13;;;;;;;1.63;1.52;;;;;;;17.78;53.29;101414.69;5021937;28;20026;-90
2022/09/22 09:02:43;;;;;;;1.90;1.58;;;;;;;17.79;53.41;101427.97;5013275;28;20052;-89
2022/09/22 09:05:11;;;;;;;1.70;1.60;;;;;;;17.74;53.31;101426.94;5004629;28;20030;-86
2022/09/22 09:08:05;;;;;;;2.38;1.80;;;;;;;17.76;53.12;101425.22;5032406;28;20040;-88
2022/09/22 09:10:56;;;;;;;1.45;1.30;;;;;;;17.82;53.15;101420.19;5010955;28;20096;-86
2022/09/22 09:13:43;;;;;;;1.70;1.60;;;;;;;17.79;53.11;101420.03;5013910;28;20391;-86
2022/09/22 09:16:24;;;;;;;;;;;;;;;17.66;53.08;101417.81;5029843;28;20033;-85
2022/09/22 09:19:05;;;;;;;1.77;1.67;;;;;;;17.70;53.20;101415.34;5031866;28;19925;-86
2022/09/22 09:21:34;;;;;;;2.00;1.80;;;;;;;17.59;53.06;101400.88;5028813;28;20036;-87
2022/09/22 09:24:04;;;;;;;3.20;2.20;;;;;;;17.79;53.06;101420.03;5007743;28;20511;-85
2022/09/22 09:26:32;;;;;;;2.42;1.90;;;;;;;17.77;53.08;101419.09;5013105;28;20029;-85
2022/09/22 09:29:00;;;;;;;2.92;1.80;;;;;;;17.65;52.93;101398.44;5012891;28;20100;-86
2022/09/22 09:31:35;;;;;;;2.83;2.05;;;;;;;17.77;53.07;101413.81;5010187;28;20029;-86
2022/09/22 09:34:12;;;;;;;2.33;1.80;;;;;;;17.72;53.27;101420.69;5024037;28;20490;-86
2022/09/22 09:36:40;;;;;;;2.10;2.00;;;;;;;17.72;52.98;101404.84;5011454;28;20022;-84
2022/09/22 09:39:14;;;;;;;2.17;1.98;;;;;;;17.77;53.17;101419.09;5028891;28;20021;-85
2022/09/22 09:41:42;;;;;;;3.38;2.03;;;;;;;17.73;53.27;101421.56;5029351;28;20040;-86
2022/09/22 09:44:13;;;;;;;3.03;2.03;;;;;;;17.80;53.07;101431.50;4995201;28;20068;-86
2022/09/22 09:47:03;;;;;;;2.28;2.08;;;;;;;17.78;53.19;101423.53;5010222;28;20022;-86
2022/09/22 09:49:29;;;;;;;2.65;2.00;;;;;;;17.70;53.10;101411.81;5029796;28;20076;-87
2022/09/22 09:52:00;;;;;;;3.53;2.17;;;;;;;17.66;53.17;101394.06;5000953;28;20041;-85
2022/09/22 09:54:26;;;;;;;2.25;1.95;;;;;;;17.82;53.12;101417.56;5023311;28;20029;-84
2022/09/22 09:57:02;;;;;;;;;;;;;;;17.85;53.27;101420.28;4994123;28;20410;-85
2022/09/22 10:02:20;;;;;;;2.40;1.83;;;;;;;17.71;53.44;101397.75;5032984;28;20411;-85
2022/09/22 10:04:54;;;;;;;2.35;2.15;;;;;;;17.62;53.08;101382.47;5015833;28;20797;-85
2022/09/22 10:07:24;;;;;;;5.10;2.33;;;;;;;17.61;53.08;101378.06;5033849;28;20033;-88
2022/09/22 10:09:51;;;;;;;3.95;1.90;;;;;;;17.65;53.46;101373.75;5030257;28;20031;-88
2022/09/22 10:12:29;;;;;;;3.90;2.13;;;;;;;17.63;53.23;101354.31;4998734;28;20646;-88
2022/09/22 10:15:19;;;;;;;3.28;1.90;;;;;;;17.94;53.24;101402.97;4994251;28;20025;-84
2022/09/22 10:17:45;;;;;;;5.35;1.92;;;;;;;17.82;53.21;101380.56;4994720;28;20045;-83
2022/09/22 10:20:19;;;;;;;6.22;2.20;;;;;;;17.93;53.40;101409.06;5023541;28;20065;-82
2022/09/22 10:22:45;;;;;;;2.97;2.08;;;;;;;17.59;53.35;101362.97;5004613;28;20032;-82
2022/09/22 10:28:50;;;;;;;3.00;1.85;;;;;;;17.11;53.42;101291.78;4969022;28;20037;-82
2022/09/22 10:31:23;;;;;;;3.40;2.00;;;;;;;17.08;53.33;101281.97;4986433;28;20124;-81
2022/09/22 10:33:57;;;;;;;3.13;2.30;;;;;;;17.65;53.46;101386.97;4995821;28;20021;-81
2022/09/22 10:36:26;;;;;;;4.55;2.20;;;;;;;17.60;53.18;101370.94;5028974;28;20026;-82
2022/09/22 10:38:53;;;;;;;3.10;2.05;;;;;;;17.20;53.17;101290.34;5031701;28;20021;-82
2022/09/22 10:41:26;;;;;;;3.10;1.90;;;;;;;17.60;53.66;101368.31;5013258;28;20514;-83
2022/09/22 10:44:09;;;;;;;2.40;2.15;;;;;;;17.82;53.66;101409.63;5015520;28;20483;-82
2022/09/22 10:46:48;;;;;;;3.13;2.00;;;;;;;17.83;53.69;101406.13;5002860;28;20494;-81
2022/09/22 10:49:32;;;;;;;2.55;1.98;;;;;;;17.82;53.64;101398.09;5027191;28;20033;-81
2022/09/22 10:52:09;;;;;;;2.45;2.22;;;;;;;17.87;53.41;101405.41;5031730;28;20042;-80
2022/09/22 10:54:48;;;;;;;7.47;2.20;;;;;;;17.65;51.92;101356.19;5032771;28;20018;-80
2022/09/22 10:57:37;;;;;;;9.07;2.03;;;;;;;17.88;52.69;101399.25;5033286;28;20502;-79
2022/09/22 11:00:03;;;;;;;8.77;2.15;;;;;;;17.84;52.77;101391.16;5013647;28;20033;-80
2022/09/22 11:03:01;;;;;;;7.70;2.15;;;;;;;17.86;52.76;101389.47;5027451;28;20022;-81
2022/09/22 11:12:18;;;;;;;7.50;2.05;;;;;;;17.88;52.66;101383.41;5013924;28;20079;-81
2022/09/22 11:15:04;;;;;;;3.33;2.10;;;;;;;17.87;52.60;101376.31;5024361;28;20120;-79
2022/09/22 11:18:00;;;;;;;2.50;1.70;;;;;;;17.78;52.36;101373.34;5030149;28;20426;-81
2022/09/22 11:20:47;;;;;;;2.10;1.83;;;;;;;17.81;52.32;101370.81;5031730;28;20635;-81
2022/09/22 11:23:49;;;;;;;2.03;1.85;;;;;;;17.82;52.89;101374.34;5025735;28;20632;-81
2022/09/22 11:26:27;;;;;;;2.03;1.50;;;;;;;17.83;52.41;101376.19;5016271;28;20041;-81
2022/09/22 11:29:08;;;;;;;3.10;1.80;;;;;;;17.87;52.50;101367.50;5008726;28;20167;-80
2022/09/22 11:31:48;;;;;;;5.00;1.70;;;;;;;17.83;52.73;101371.78;5030597;28;20036;-81
2022/09/22 11:34:33;;;;;;;3.38;1.90;;;;;;;17.90;52.60;101364.97;5011376;28;20032;-81
2022/09/22 11:37:26;;;;;;;2.92;1.92;;;;;;;17.82;51.51;101366.41;5032106;28;20079;-81
2022/09/22 11:40:15;;;;;;;2.80;1.80;;;;;;;17.83;51.96;101365.59;5030727;28;20026;-81
2022/09/22 11:43:08;;;;;;;3.05;2.00;;;;;;;17.94;52.32;101364.22;5015897;28;20156;-81
2022/09/22 11:45:43;;;;;;;2.90;1.83;;;;;;;17.89;51.85;101363.19;5042920;28;20513;-80
2022/09/22 11:48:37;;;;;;;1.77;1.67;;;;;;;17.90;52.13;101352.63;5034653;28;20376;-81
2022/09/22 11:51:07;;;;;;;3.10;1.88;;;;;;;17.85;52.14;101359.53;4995019;28;20029;-80
2022/09/22 11:53:39;;;;;;;3.70;1.70;;;;;;;17.74;52.02;101337.09;5031263;28;20076;-80
2022/09/22 11:56:26;;;;;;;2.03;1.83;;;;;;;17.85;52.03;101354.25;5013413;28;20036;-81
2022/09/22 11:58:54;;;;;;;3.13;1.63;;;;;;;17.74;52.20;101331.81;5028933;28;20088;-81
2022/09/22 12:01:25;;;;;;;2.58;1.83;;;;;;;17.85;52.03;101351.59;5015433;28;20514;-80
2022/09/22 12:04:12;;;;;;;1.88;1.40;;;;;;;17.90;51.11;101359.66;5026900;28;20078;-80